sensor_id;sensor_type;location;lat;lon;timestamp;P1;durP1;ratioP1;P2;durP2;ratioP2
17283;SDS011;8760;52.248;20.952;2023-07-08T00:02:07;4.63;;;3.70;;
17283;SDS011;8760;52.248;20.952;2023-07-08T00:04:35;6.22;;;3.30;;
17283;SDS011;8760;52.248;20.952;2023-07-08T00:07:02;6.07;;;3.50;;
17283;SDS011;8760;52.248;20.952;2023-07-08T00:09:29;6.25;;;3.45;;
17283;SDS011;8760;52.248;20.952;2023-07-08T00:11:56;6.38;;;3.60;;
17283;SDS011;8760;52.248;20.952;2023-07-08T00:14:24;9.38;;;3.97;;
17283;SDS011;8760;52.248;20.952;2023-07-08T00:16:51;6.85;;;3.40;;
17283;SDS011;8760;52.248;20.952;2023-07-08T00:19:18;9.60;;;3.70;;
17283;SDS011;8760;52.248;20.952;2023-07-08T00:21:48;6.05;;;3.60;;
17283;SDS011;8760;52.248;20.952;2023-07-08T00:24:16;7.38;;;3.83;;
17283;SDS011;8760;52.248;20.952;2023-07-08T00:26:43;7.60;;;3.40;;
17283;SDS011;8760;52.248;20.952;2023-07-08T00:29:10;6.00;;;3.20;;
17283;SDS011;8760;52.248;20.952;2023-07-08T00:31:39;10.50;;;3.90;;
17283;SDS011;8760;52.248;20.952;2023-07-08T00:34:06;7.00;;;3.80;;
17283;SDS011;8760;52.248;20.952;2023-07-08T00:36:33;5.93;;;3.60;;
17283;SDS011;8760;52.248;20.952;2023-07-08T00:39:01;6.70;;;3.83;;
17283;SDS011;8760;52.248;20.952;2023-07-08T00:41:28;5.93;;;3.85;;
17283;SDS011;8760;52.248;20.952;2023-07-08T00:43:58;6.23;;;3.83;;
17283;SDS011;8760;52.248;20.952;2023-07-08T00:46:31;6.60;;;3.75;;
17283;SDS011;8760;52.248;20.952;2023-07-08T00:49:17;7.88;;;3.90;;
17283;SDS011;8760;52.248;20.952;2023-07-08T00:51:51;5.95;;;4.10;;
17283;SDS011;8760;52.248;20.952;2023-07-08T00:54:18;9.23;;;4.10;;
17283;SDS011;8760;52.248;20.952;2023-07-08T00:56:46;7.67;;;4.57;;
17283;SDS011;8760;52.248;20.952;2023-07-08T00:59:18;10.10;;;4.00;;
17283;SDS011;8760;52.248;20.952;2023-07-08T01:01:47;8.23;;;3.90;;
17283;SDS011;8760;52.248;20.952;2023-07-08T01:04:17;5.23;;;4.07;;
17283;SDS011;8760;52.248;20.952;2023-07-08T01:06:47;6.63;;;4.32;;
17283;SDS011;8760;52.248;20.952;2023-07-08T01:09:24;6.73;;;4.33;;
17283;SDS011;8760;52.248;20.952;2023-07-08T01:11:53;5.78;;;3.88;;
17283;SDS011;8760;52.248;20.952;2023-07-08T01:14:23;6.43;;;4.40;;
17283;SDS011;8760;52.248;20.952;2023-07-08T01:16:53;6.77;;;4.13;;
17283;SDS011;8760;52.248;20.952;2023-07-08T01:19:21;8.43;;;4.15;;
17283;SDS011;8760;52.248;20.952;2023-07-08T01:22:01;8.13;;;4.60;;
17283;SDS011;8760;52.248;20.952;2023-07-08T01:24:29;6.07;;;4.37;;
17283;SDS011;8760;52.248;20.952;2023-07-08T01:26:57;6.93;;;4.67;;
17283;SDS011;8760;52.248;20.952;2023-07-08T01:29:26;6.77;;;4.07;;
17283;SDS011;8760;52.248;20.952;2023-07-08T01:31:54;6.00;;;4.13;;
17283;SDS011;8760;52.248;20.952;2023-07-08T01:34:21;6.77;;;4.70;;
17283;SDS011;8760;52.248;20.952;2023-07-08T01:36:49;6.40;;;4.50;;
17283;SDS011;8760;52.248;20.952;2023-07-08T01:39:21;7.80;;;4.87;;
17283;SDS011;8760;52.248;20.952;2023-07-08T01:41:49;7.23;;;4.70;;
17283;SDS011;8760;52.248;20.952;2023-07-08T01:44:34;6.30;;;4.57;;
17283;SDS011;8760;52.248;20.952;2023-07-08T01:47:02;9.40;;;4.77;;
17283;SDS011;8760;52.248;20.952;2023-07-08T01:49:33;7.63;;;4.70;;
17283;SDS011;8760;52.248;20.952;2023-07-08T01:52:03;8.33;;;5.00;;
17283;SDS011;8760;52.248;20.952;2023-07-08T01:54:32;9.03;;;5.03;;
17283;SDS011;8760;52.248;20.952;2023-07-08T01:56:59;8.43;;;4.70;;
17283;SDS011;8760;52.248;20.952;2023-07-08T01:59:27;7.73;;;4.80;;
17283;SDS011;8760;52.248;20.952;2023-07-08T02:01:55;9.70;;;4.60;;
17283;SDS011;8760;52.248;20.952;2023-07-08T02:04:22;7.77;;;4.60;;
17283;SDS011;8760;52.248;20.952;2023-07-08T02:06:51;6.97;;;4.63;;
17283;SDS011;8760;52.248;20.952;2023-07-08T02:09:19;7.00;;;4.90;;
17283;SDS011;8760;52.248;20.952;2023-07-08T02:11:47;5.77;;;4.60;;
17283;SDS011;8760;52.248;20.952;2023-07-08T02:14:14;8.40;;;4.63;;
17283;SDS011;8760;52.248;20.952;2023-07-08T02:16:41;7.70;;;5.13;;
17283;SDS011;8760;52.248;20.952;2023-07-08T02:19:08;7.13;;;4.90;;
17283;SDS011;8760;52.248;20.952;2023-07-08T02:21:36;7.97;;;4.90;;
17283;SDS011;8760;52.248;20.952;2023-07-08T02:24:04;11.47;;;5.40;;
17283;SDS011;8760;52.248;20.952;2023-07-08T02:26:31;9.13;;;4.90;;
17283;SDS011;8760;52.248;20.952;2023-07-08T02:29:00;7.20;;;4.73;;
17283;SDS011;8760;52.248;20.952;2023-07-08T02:31:27;12.20;;;4.70;;
17283;SDS011;8760;52.248;20.952;2023-07-08T02:33:54;7.97;;;5.30;;
17283;SDS011;8760;52.248;20.952;2023-07-08T02:36:21;7.40;;;5.20;;
17283;SDS011;8760;52.248;20.952;2023-07-08T02:38:49;8.17;;;4.60;;
17283;SDS011;8760;52.248;20.952;2023-07-08T02:41:17;9.40;;;5.40;;
17283;SDS011;8760;52.248;20.952;2023-07-08T02:43:44;6.37;;;5.00;;
17283;SDS011;8760;52.248;20.952;2023-07-08T02:46:12;7.07;;;5.30;;
17283;SDS011;8760;52.248;20.952;2023-07-08T02:48:39;10.00;;;5.33;;
17283;SDS011;8760;52.248;20.952;2023-07-08T02:51:06;9.97;;;5.30;;
17283;SDS011;8760;52.248;20.952;2023-07-08T02:53:34;11.33;;;5.47;;
17283;SDS011;8760;52.248;20.952;2023-07-08T02:56:01;7.67;;;4.97;;
17283;SDS011;8760;52.248;20.952;2023-07-08T02:58:28;9.03;;;5.57;;
17283;SDS011;8760;52.248;20.952;2023-07-08T03:00:55;9.87;;;5.30;;
17283;SDS011;8760;52.248;20.952;2023-07-08T03:03:25;8.03;;;5.27;;
17283;SDS011;8760;52.248;20.952;2023-07-08T03:05:54;7.83;;;5.03;;
17283;SDS011;8760;52.248;20.952;2023-07-08T03:08:22;7.33;;;5.17;;
17283;SDS011;8760;52.248;20.952;2023-07-08T03:10:53;10.63;;;5.50;;
17283;SDS011;8760;52.248;20.952;2023-07-08T03:13:21;7.57;;;5.27;;
17283;SDS011;8760;52.248;20.952;2023-07-08T03:15:48;9.50;;;5.63;;
17283;SDS011;8760;52.248;20.952;2023-07-08T03:18:15;9.10;;;5.20;;
17283;SDS011;8760;52.248;20.952;2023-07-08T03:20:44;9.33;;;6.00;;
17283;SDS011;8760;52.248;20.952;2023-07-08T03:23:11;6.80;;;5.87;;
17283;SDS011;8760;52.248;20.952;2023-07-08T03:25:38;9.20;;;5.80;;
17283;SDS011;8760;52.248;20.952;2023-07-08T03:28:06;11.00;;;6.00;;
17283;SDS011;8760;52.248;20.952;2023-07-08T03:30:39;9.77;;;6.20;;
17283;SDS011;8760;52.248;20.952;2023-07-08T03:33:06;7.97;;;5.37;;
17283;SDS011;8760;52.248;20.952;2023-07-08T03:35:32;11.50;;;5.80;;
17283;SDS011;8760;52.248;20.952;2023-07-08T03:38:01;7.57;;;5.90;;
17283;SDS011;8760;52.248;20.952;2023-07-08T03:40:28;8.73;;;5.67;;
17283;SDS011;8760;52.248;20.952;2023-07-08T03:42:55;12.43;;;6.00;;
17283;SDS011;8760;52.248;20.952;2023-07-08T03:45:22;13.52;;;6.03;;
17283;SDS011;8760;52.248;20.952;2023-07-08T03:47:49;9.23;;;5.60;;
17283;SDS011;8760;52.248;20.952;2023-07-08T03:50:17;10.00;;;5.75;;
17283;SDS011;8760;52.248;20.952;2023-07-08T03:52:46;9.18;;;6.43;;
17283;SDS011;8760;52.248;20.952;2023-07-08T03:55:15;10.40;;;6.23;;
17283;SDS011;8760;52.248;20.952;2023-07-08T03:57:42;12.80;;;5.33;;
17283;SDS011;8760;52.248;20.952;2023-07-08T04:00:09;10.63;;;6.27;;
17283;SDS011;8760;52.248;20.952;2023-07-08T04:02:37;8.83;;;5.87;;
17283;SDS011;8760;52.248;20.952;2023-07-08T04:05:04;8.90;;;6.17;;
17283;SDS011;8760;52.248;20.952;2023-07-08T04:07:31;12.40;;;5.45;;
17283;SDS011;8760;52.248;20.952;2023-07-08T04:09:59;11.80;;;6.40;;
17283;SDS011;8760;52.248;20.952;2023-07-08T04:12:28;9.18;;;5.82;;
17283;SDS011;8760;52.248;20.952;2023-07-08T04:14:54;9.50;;;6.25;;
17283;SDS011;8760;52.248;20.952;2023-07-08T04:17:21;8.35;;;6.38;;
17283;SDS011;8760;52.248;20.952;2023-07-08T04:19:49;11.57;;;6.32;;
17283;SDS011;8760;52.248;20.952;2023-07-08T04:22:15;10.32;;;6.72;;
17283;SDS011;8760;52.248;20.952;2023-07-08T04:24:42;9.75;;;5.80;;
17283;SDS011;8760;52.248;20.952;2023-07-08T04:27:11;10.55;;;6.47;;
17283;SDS011;8760;52.248;20.952;2023-07-08T04:29:41;8.73;;;6.43;;
17283;SDS011;8760;52.248;20.952;2023-07-08T04:32:08;8.38;;;5.85;;
17283;SDS011;8760;52.248;20.952;2023-07-08T04:34:36;7.55;;;5.55;;
17283;SDS011;8760;52.248;20.952;2023-07-08T04:37:03;8.95;;;6.40;;
17283;SDS011;8760;52.248;20.952;2023-07-08T04:39:30;7.63;;;5.18;;
17283;SDS011;8760;52.248;20.952;2023-07-08T04:41:57;10.20;;;6.15;;
17283;SDS011;8760;52.248;20.952;2023-07-08T04:44:24;8.77;;;5.15;;
17283;SDS011;8760;52.248;20.952;2023-07-08T04:46:54;5.35;;;4.13;;
17283;SDS011;8760;52.248;20.952;2023-07-08T04:49:22;9.48;;;4.30;;
17283;SDS011;8760;52.248;20.952;2023-07-08T04:51:56;6.20;;;4.10;;
17283;SDS011;8760;52.248;20.952;2023-07-08T04:54:23;6.43;;;4.60;;
17283;SDS011;8760;52.248;20.952;2023-07-08T04:56:50;14.65;;;6.07;;
17283;SDS011;8760;52.248;20.952;2023-07-08T04:59:18;13.27;;;5.32;;
17283;SDS011;8760;52.248;20.952;2023-07-08T05:01:47;9.15;;;4.85;;
17283;SDS011;8760;52.248;20.952;2023-07-08T05:04:16;8.55;;;4.45;;
17283;SDS011;8760;52.248;20.952;2023-07-08T05:06:44;9.07;;;4.22;;
17283;SDS011;8760;52.248;20.952;2023-07-08T05:09:12;7.28;;;4.15;;
17283;SDS011;8760;52.248;20.952;2023-07-08T05:11:39;6.93;;;4.20;;
17283;SDS011;8760;52.248;20.952;2023-07-08T05:14:05;6.05;;;4.10;;
17283;SDS011;8760;52.248;20.952;2023-07-08T05:16:33;8.95;;;4.30;;
17283;SDS011;8760;52.248;20.952;2023-07-08T05:19:01;6.97;;;4.15;;
17283;SDS011;8760;52.248;20.952;2023-07-08T05:21:30;6.70;;;4.57;;
17283;SDS011;8760;52.248;20.952;2023-07-08T05:23:58;8.02;;;5.20;;
17283;SDS011;8760;52.248;20.952;2023-07-08T05:26:25;7.68;;;4.05;;
17283;SDS011;8760;52.248;20.952;2023-07-08T05:28:52;7.13;;;4.10;;
17283;SDS011;8760;52.248;20.952;2023-07-08T05:31:19;6.65;;;4.32;;
17283;SDS011;8760;52.248;20.952;2023-07-08T05:33:46;5.20;;;3.58;;
17283;SDS011;8760;52.248;20.952;2023-07-08T05:36:13;6.38;;;3.95;;
17283;SDS011;8760;52.248;20.952;2023-07-08T05:38:41;7.47;;;4.38;;
17283;SDS011;8760;52.248;20.952;2023-07-08T05:41:08;6.07;;;4.05;;
17283;SDS011;8760;52.248;20.952;2023-07-08T05:43:35;4.70;;;3.80;;
17283;SDS011;8760;52.248;20.952;2023-07-08T05:46:02;8.10;;;3.75;;
17283;SDS011;8760;52.248;20.952;2023-07-08T05:48:29;7.35;;;3.63;;
17283;SDS011;8760;52.248;20.952;2023-07-08T05:50:56;4.90;;;3.78;;
17283;SDS011;8760;52.248;20.952;2023-07-08T05:53:23;7.18;;;3.80;;
17283;SDS011;8760;52.248;20.952;2023-07-08T05:55:51;9.48;;;4.18;;
17283;SDS011;8760;52.248;20.952;2023-07-08T05:58:18;11.07;;;3.80;;
17283;SDS011;8760;52.248;20.952;2023-07-08T06:00:45;7.18;;;3.10;;
17283;SDS011;8760;52.248;20.952;2023-07-08T06:03:12;7.68;;;5.00;;
17283;SDS011;8760;52.248;20.952;2023-07-08T06:05:39;7.38;;;4.93;;
17283;SDS011;8760;52.248;20.952;2023-07-08T06:08:06;8.65;;;4.40;;
17283;SDS011;8760;52.248;20.952;2023-07-08T06:10:33;13.77;;;8.25;;
17283;SDS011;8760;52.248;20.952;2023-07-08T06:13:02;9.18;;;4.50;;
17283;SDS011;8760;52.248;20.952;2023-07-08T06:15:29;8.23;;;4.20;;
17283;SDS011;8760;52.248;20.952;2023-07-08T06:17:56;7.20;;;4.03;;
17283;SDS011;8760;52.248;20.952;2023-07-08T06:20:26;5.05;;;3.30;;
17283;SDS011;8760;52.248;20.952;2023-07-08T06:22:53;10.25;;;3.13;;
17283;SDS011;8760;52.248;20.952;2023-07-08T06:25:20;3.65;;;3.10;;
17283;SDS011;8760;52.248;20.952;2023-07-08T06:27:47;8.18;;;4.05;;
17283;SDS011;8760;52.248;20.952;2023-07-08T06:30:15;8.40;;;4.57;;
17283;SDS011;8760;52.248;20.952;2023-07-08T06:32:42;6.53;;;4.85;;
17283;SDS011;8760;52.248;20.952;2023-07-08T06:35:09;4.78;;;2.70;;
17283;SDS011;8760;52.248;20.952;2023-07-08T06:37:36;7.38;;;4.07;;
17283;SDS011;8760;52.248;20.952;2023-07-08T06:40:03;8.43;;;3.10;;
17283;SDS011;8760;52.248;20.952;2023-07-08T06:42:30;10.75;;;3.30;;
17283;SDS011;8760;52.248;20.952;2023-07-08T06:44:57;7.05;;;2.75;;
17283;SDS011;8760;52.248;20.952;2023-07-08T06:47:25;6.53;;;2.85;;
17283;SDS011;8760;52.248;20.952;2023-07-08T06:49:52;9.48;;;4.05;;
17283;SDS011;8760;52.248;20.952;2023-07-08T06:52:19;8.05;;;3.78;;
17283;SDS011;8760;52.248;20.952;2023-07-08T06:54:46;3.35;;;2.83;;
17283;SDS011;8760;52.248;20.952;2023-07-08T06:57:13;5.43;;;2.90;;
17283;SDS011;8760;52.248;20.952;2023-07-08T06:59:40;3.95;;;2.42;;
17283;SDS011;8760;52.248;20.952;2023-07-08T07:02:07;5.10;;;2.85;;
17283;SDS011;8760;52.248;20.952;2023-07-08T07:04:36;6.22;;;2.92;;
17283;SDS011;8760;52.248;20.952;2023-07-08T07:07:03;4.90;;;3.58;;
17283;SDS011;8760;52.248;20.952;2023-07-08T07:09:30;9.30;;;2.75;;
17283;SDS011;8760;52.248;20.952;2023-07-08T07:11:57;3.00;;;2.33;;
17283;SDS011;8760;52.248;20.952;2023-07-08T07:14:23;5.78;;;2.80;;
17283;SDS011;8760;52.248;20.952;2023-07-08T07:16:50;5.35;;;3.08;;
17283;SDS011;8760;52.248;20.952;2023-07-08T07:19:17;3.55;;;2.83;;
17283;SDS011;8760;52.248;20.952;2023-07-08T07:21:46;6.80;;;3.00;;
17283;SDS011;8760;52.248;20.952;2023-07-08T07:24:13;3.35;;;2.35;;
17283;SDS011;8760;52.248;20.952;2023-07-08T07:26:40;5.00;;;3.30;;
17283;SDS011;8760;52.248;20.952;2023-07-08T07:29:07;4.93;;;2.38;;
17283;SDS011;8760;52.248;20.952;2023-07-08T07:31:34;5.43;;;2.88;;
17283;SDS011;8760;52.248;20.952;2023-07-08T07:34:00;4.03;;;3.50;;
17283;SDS011;8760;52.248;20.952;2023-07-08T07:36:28;6.30;;;3.55;;
17283;SDS011;8760;52.248;20.952;2023-07-08T07:38:56;3.00;;;2.38;;
17283;SDS011;8760;52.248;20.952;2023-07-08T07:41:23;6.22;;;2.40;;
17283;SDS011;8760;52.248;20.952;2023-07-08T07:43:50;5.80;;;2.33;;
17283;SDS011;8760;52.248;20.952;2023-07-08T07:46:17;4.53;;;2.20;;
17283;SDS011;8760;52.248;20.952;2023-07-08T07:48:44;3.63;;;1.92;;
17283;SDS011;8760;52.248;20.952;2023-07-08T07:51:11;5.60;;;2.28;;
17283;SDS011;8760;52.248;20.952;2023-07-08T07:53:38;3.28;;;2.30;;
17283;SDS011;8760;52.248;20.952;2023-07-08T07:56:07;2.83;;;2.08;;
17283;SDS011;8760;52.248;20.952;2023-07-08T07:58:34;3.00;;;1.92;;
17283;SDS011;8760;52.248;20.952;2023-07-08T08:01:01;3.13;;;2.03;;
17283;SDS011;8760;52.248;20.952;2023-07-08T08:03:28;2.45;;;2.15;;
17283;SDS011;8760;52.248;20.952;2023-07-08T08:05:54;4.00;;;2.10;;
17283;SDS011;8760;52.248;20.952;2023-07-08T08:08:21;2.85;;;1.92;;
17283;SDS011;8760;52.248;20.952;2023-07-08T08:10:48;4.82;;;2.22;;
17283;SDS011;8760;52.248;20.952;2023-07-08T08:13:17;2.50;;;2.30;;
17283;SDS011;8760;52.248;20.952;2023-07-08T08:15:44;3.30;;;2.20;;
17283;SDS011;8760;52.248;20.952;2023-07-08T08:18:11;6.20;;;2.72;;
17283;SDS011;8760;52.248;20.952;2023-07-08T08:20:37;4.50;;;2.40;;
17283;SDS011;8760;52.248;20.952;2023-07-08T08:23:06;2.97;;;2.20;;
17283;SDS011;8760;52.248;20.952;2023-07-08T08:25:33;2.70;;;2.28;;
17283;SDS011;8760;52.248;20.952;2023-07-08T08:27:59;3.88;;;2.10;;
17283;SDS011;8760;52.248;20.952;2023-07-08T08:30:28;7.65;;;2.40;;
17283;SDS011;8760;52.248;20.952;2023-07-08T08:32:55;3.65;;;1.98;;
17283;SDS011;8760;52.248;20.952;2023-07-08T08:35:21;7.30;;;2.95;;
17283;SDS011;8760;52.248;20.952;2023-07-08T08:37:48;4.75;;;1.85;;
17283;SDS011;8760;52.248;20.952;2023-07-08T08:40:16;4.50;;;2.22;;
17283;SDS011;8760;52.248;20.952;2023-07-08T08:42:45;4.55;;;1.92;;
17283;SDS011;8760;52.248;20.952;2023-07-08T08:45:18;2.97;;;2.42;;
17283;SDS011;8760;52.248;20.952;2023-07-08T08:47:49;7.82;;;2.63;;
17283;SDS011;8760;52.248;20.952;2023-07-08T08:50:26;4.18;;;2.10;;
17283;SDS011;8760;52.248;20.952;2023-07-08T08:52:57;4.05;;;3.42;;
17283;SDS011;8760;52.248;20.952;2023-07-08T08:55:27;5.03;;;2.53;;
17283;SDS011;8760;52.248;20.952;2023-07-08T08:57:57;2.65;;;2.20;;
17283;SDS011;8760;52.248;20.952;2023-07-08T09:00:32;6.00;;;2.60;;
17283;SDS011;8760;52.248;20.952;2023-07-08T09:03:11;3.95;;;2.28;;
17283;SDS011;8760;52.248;20.952;2023-07-08T09:05:42;3.78;;;2.13;;
17283;SDS011;8760;52.248;20.952;2023-07-08T09:08:11;2.70;;;2.25;;
17283;SDS011;8760;52.248;20.952;2023-07-08T09:10:43;2.40;;;2.20;;
17283;SDS011;8760;52.248;20.952;2023-07-08T09:13:15;3.40;;;1.98;;
17283;SDS011;8760;52.248;20.952;2023-07-08T09:15:48;2.92;;;2.05;;
17283;SDS011;8760;52.248;20.952;2023-07-08T09:18:24;3.28;;;2.17;;
17283;SDS011;8760;52.248;20.952;2023-07-08T09:21:13;3.92;;;2.20;;
17283;SDS011;8760;52.248;20.952;2023-07-08T09:23:45;3.88;;;2.17;;
17283;SDS011;8760;52.248;20.952;2023-07-08T09:26:17;4.38;;;2.05;;
17283;SDS011;8760;52.248;20.952;2023-07-08T09:28:47;2.42;;;2.22;;
17283;SDS011;8760;52.248;20.952;2023-07-08T09:31:20;4.13;;;2.05;;
17283;SDS011;8760;52.248;20.952;2023-07-08T09:33:51;2.13;;;1.92;;
17283;SDS011;8760;52.248;20.952;2023-07-08T09:36:22;2.63;;;2.03;;
17283;SDS011;8760;52.248;20.952;2023-07-08T09:38:50;8.55;;;2.60;;
17283;SDS011;8760;52.248;20.952;2023-07-08T09:44:04;2.65;;;2.10;;
17283;SDS011;8760;52.248;20.952;2023-07-08T09:46:43;6.80;;;2.40;;
17283;SDS011;8760;52.248;20.952;2023-07-08T09:49:18;4.43;;;2.30;;
17283;SDS011;8760;52.248;20.952;2023-07-08T09:51:47;3.55;;;1.80;;
17283;SDS011;8760;52.248;20.952;2023-07-08T09:54:16;3.30;;;2.20;;
17283;SDS011;8760;52.248;20.952;2023-07-08T09:56:44;3.95;;;2.10;;
17283;SDS011;8760;52.248;20.952;2023-07-08T09:59:18;4.00;;;2.20;;
17283;SDS011;8760;52.248;20.952;2023-07-08T10:01:47;2.30;;;2.10;;
17283;SDS011;8760;52.248;20.952;2023-07-08T10:04:14;2.78;;;2.35;;
17283;SDS011;8760;52.248;20.952;2023-07-08T10:06:46;4.00;;;2.00;;
17283;SDS011;8760;52.248;20.952;2023-07-08T10:09:14;4.20;;;2.40;;
17283;SDS011;8760;52.248;20.952;2023-07-08T10:11:47;3.08;;;1.90;;
17283;SDS011;8760;52.248;20.952;2023-07-08T10:14:19;2.58;;;2.22;;
17283;SDS011;8760;52.248;20.952;2023-07-08T10:16:52;2.72;;;2.10;;
17283;SDS011;8760;52.248;20.952;2023-07-08T10:19:21;3.30;;;1.92;;
17283;SDS011;8760;52.248;20.952;2023-07-08T10:21:51;3.40;;;2.13;;
17283;SDS011;8760;52.248;20.952;2023-07-08T10:24:29;2.22;;;2.05;;
17283;SDS011;8760;52.248;20.952;2023-07-08T10:27:08;2.38;;;2.10;;
17283;SDS011;8760;52.248;20.952;2023-07-08T10:29:48;2.53;;;2.05;;
17283;SDS011;8760;52.248;20.952;2023-07-08T10:32:23;2.05;;;1.90;;
17283;SDS011;8760;52.248;20.952;2023-07-08T10:35:00;4.47;;;1.80;;
17283;SDS011;8760;52.248;20.952;2023-07-08T10:37:32;2.45;;;2.25;;
17283;SDS011;8760;52.248;20.952;2023-07-08T10:40:19;2.50;;;2.08;;
17283;SDS011;8760;52.248;20.952;2023-07-08T10:42:54;2.65;;;1.85;;
17283;SDS011;8760;52.248;20.952;2023-07-08T10:45:45;3.08;;;2.20;;
17283;SDS011;8760;52.248;20.952;2023-07-08T10:48:20;2.22;;;1.92;;
17283;SDS011;8760;52.248;20.952;2023-07-08T10:51:12;1.80;;;1.70;;
17283;SDS011;8760;52.248;20.952;2023-07-08T10:53:55;3.80;;;2.15;;
17283;SDS011;8760;52.248;20.952;2023-07-08T10:56:40;4.70;;;2.05;;
17283;SDS011;8760;52.248;20.952;2023-07-08T10:59:19;3.45;;;2.03;;
17283;SDS011;8760;52.248;20.952;2023-07-08T11:02:05;3.42;;;2.08;;
17283;SDS011;8760;52.248;20.952;2023-07-08T11:04:50;3.42;;;2.30;;
17283;SDS011;8760;52.248;20.952;2023-07-08T11:07:28;3.83;;;2.28;;
17283;SDS011;8760;52.248;20.952;2023-07-08T11:10:02;2.10;;;1.90;;
17283;SDS011;8760;52.248;20.952;2023-07-08T11:12:38;1.90;;;1.80;;
17283;SDS011;8760;52.248;20.952;2023-07-08T11:15:13;3.85;;;2.30;;
17283;SDS011;8760;52.248;20.952;2023-07-08T11:17:46;3.58;;;2.10;;
17283;SDS011;8760;52.248;20.952;2023-07-08T11:20:17;3.10;;;2.35;;
17283;SDS011;8760;52.248;20.952;2023-07-08T11:22:49;2.80;;;2.22;;
17283;SDS011;8760;52.248;20.952;2023-07-08T11:25:19;3.28;;;2.00;;
17283;SDS011;8760;52.248;20.952;2023-07-08T11:27:48;2.72;;;1.85;;
17283;SDS011;8760;52.248;20.952;2023-07-08T11:30:20;3.60;;;2.17;;
17283;SDS011;8760;52.248;20.952;2023-07-08T11:32:52;3.97;;;2.25;;
17283;SDS011;8760;52.248;20.952;2023-07-08T11:35:27;3.28;;;2.33;;
17283;SDS011;8760;52.248;20.952;2023-07-08T11:38:02;2.45;;;2.25;;
17283;SDS011;8760;52.248;20.952;2023-07-08T11:40:30;4.15;;;2.03;;
17283;SDS011;8760;52.248;20.952;2023-07-08T11:43:05;2.63;;;2.42;;
17283;SDS011;8760;52.248;20.952;2023-07-08T11:45:34;3.65;;;2.53;;
17283;SDS011;8760;52.248;20.952;2023-07-08T11:48:04;2.50;;;2.30;;
17283;SDS011;8760;52.248;20.952;2023-07-08T11:50:37;2.72;;;2.33;;
17283;SDS011;8760;52.248;20.952;2023-07-08T11:53:08;2.42;;;2.22;;
17283;SDS011;8760;52.248;20.952;2023-07-08T11:55:37;4.72;;;2.40;;
17283;SDS011;8760;52.248;20.952;2023-07-08T11:58:19;2.58;;;2.33;;
17283;SDS011;8760;52.248;20.952;2023-07-08T12:00:51;3.92;;;2.30;;
17283;SDS011;8760;52.248;20.952;2023-07-08T12:03:28;5.22;;;2.55;;
17283;SDS011;8760;52.248;20.952;2023-07-08T12:06:00;3.83;;;2.25;;
17283;SDS011;8760;52.248;20.952;2023-07-08T12:08:35;4.90;;;2.17;;
17283;SDS011;8760;52.248;20.952;2023-07-08T12:11:07;2.60;;;2.40;;
17283;SDS011;8760;52.248;20.952;2023-07-08T12:13:37;55.85;;;5.82;;
17283;SDS011;8760;52.248;20.952;2023-07-08T12:16:07;2.47;;;2.20;;
17283;SDS011;8760;52.248;20.952;2023-07-08T12:18:36;2.92;;;2.40;;
17283;SDS011;8760;52.248;20.952;2023-07-08T12:21:11;4.20;;;2.42;;
17283;SDS011;8760;52.248;20.952;2023-07-08T12:23:44;4.80;;;2.40;;
17283;SDS011;8760;52.248;20.952;2023-07-08T12:26:12;5.28;;;2.08;;
17283;SDS011;8760;52.248;20.952;2023-07-08T12:28:40;7.43;;;2.58;;
17283;SDS011;8760;52.248;20.952;2023-07-08T12:31:09;2.38;;;2.17;;
17283;SDS011;8760;52.248;20.952;2023-07-08T12:33:41;2.38;;;2.17;;
17283;SDS011;8760;52.248;20.952;2023-07-08T12:36:10;4.82;;;2.50;;
17283;SDS011;8760;52.248;20.952;2023-07-08T12:38:40;4.85;;;2.63;;
17283;SDS011;8760;52.248;20.952;2023-07-08T12:41:12;2.92;;;2.30;;
17283;SDS011;8760;52.248;20.952;2023-07-08T12:43:41;3.88;;;2.63;;
17283;SDS011;8760;52.248;20.952;2023-07-08T12:46:08;4.07;;;2.45;;
17283;SDS011;8760;52.248;20.952;2023-07-08T12:48:36;5.30;;;2.60;;
17283;SDS011;8760;52.248;20.952;2023-07-08T12:51:05;3.15;;;2.70;;
17283;SDS011;8760;52.248;20.952;2023-07-08T12:53:33;2.40;;;2.20;;
17283;SDS011;8760;52.248;20.952;2023-07-08T12:56:01;4.63;;;3.85;;
17283;SDS011;8760;52.248;20.952;2023-07-08T12:58:30;3.45;;;2.60;;
17283;SDS011;8760;52.248;20.952;2023-07-08T13:01:01;3.53;;;2.50;;
17283;SDS011;8760;52.248;20.952;2023-07-08T13:03:30;2.83;;;2.55;;
17283;SDS011;8760;52.248;20.952;2023-07-08T13:05:59;3.13;;;2.38;;
17283;SDS011;8760;52.248;20.952;2023-07-08T13:08:29;2.83;;;2.50;;
17283;SDS011;8760;52.248;20.952;2023-07-08T13:11:01;3.35;;;2.30;;
17283;SDS011;8760;52.248;20.952;2023-07-08T13:13:32;2.83;;;2.30;;
17283;SDS011;8760;52.248;20.952;2023-07-08T13:16:01;3.05;;;2.50;;
17283;SDS011;8760;52.248;20.952;2023-07-08T13:18:30;3.28;;;2.60;;
17283;SDS011;8760;52.248;20.952;2023-07-08T13:20:58;3.13;;;2.65;;
17283;SDS011;8760;52.248;20.952;2023-07-08T13:23:26;10.45;;;3.17;;
17283;SDS011;8760;52.248;20.952;2023-07-08T13:25:54;5.20;;;2.85;;
17283;SDS011;8760;52.248;20.952;2023-07-08T13:28:23;2.90;;;2.50;;
17283;SDS011;8760;52.248;20.952;2023-07-08T13:30:53;2.92;;;2.30;;
17283;SDS011;8760;52.248;20.952;2023-07-08T13:33:22;4.40;;;2.78;;
17283;SDS011;8760;52.248;20.952;2023-07-08T13:35:50;3.00;;;2.70;;
17283;SDS011;8760;52.248;20.952;2023-07-08T13:38:21;7.05;;;2.40;;
17283;SDS011;8760;52.248;20.952;2023-07-08T13:40:52;5.45;;;2.70;;
17283;SDS011;8760;52.248;20.952;2023-07-08T13:43:23;3.45;;;2.47;;
17283;SDS011;8760;52.248;20.952;2023-07-08T13:45:52;3.58;;;2.50;;
17283;SDS011;8760;52.248;20.952;2023-07-08T13:48:21;3.50;;;2.63;;
17283;SDS011;8760;52.248;20.952;2023-07-08T13:50:53;3.05;;;2.50;;
17283;SDS011;8760;52.248;20.952;2023-07-08T13:53:25;3.45;;;2.40;;
17283;SDS011;8760;52.248;20.952;2023-07-08T13:55:56;6.50;;;2.92;;
17283;SDS011;8760;52.248;20.952;2023-07-08T13:58:26;2.58;;;2.33;;
17283;SDS011;8760;52.248;20.952;2023-07-08T14:00:57;2.67;;;2.47;;
17283;SDS011;8760;52.248;20.952;2023-07-08T14:03:24;2.83;;;2.58;;
17283;SDS011;8760;52.248;20.952;2023-07-08T14:05:51;6.22;;;2.88;;
17283;SDS011;8760;52.248;20.952;2023-07-08T14:08:18;2.75;;;2.30;;
17283;SDS011;8760;52.248;20.952;2023-07-08T14:10:47;3.22;;;2.45;;
17283;SDS011;8760;52.248;20.952;2023-07-08T14:13:14;2.53;;;2.33;;
17283;SDS011;8760;52.248;20.952;2023-07-08T14:15:42;2.47;;;2.28;;
17283;SDS011;8760;52.248;20.952;2023-07-08T14:18:12;2.58;;;2.33;;
17283;SDS011;8760;52.248;20.952;2023-07-08T14:20:40;2.67;;;2.47;;
17283;SDS011;8760;52.248;20.952;2023-07-08T14:23:08;4.90;;;2.40;;
17283;SDS011;8760;52.248;20.952;2023-07-08T14:25:36;7.18;;;2.40;;
17283;SDS011;8760;52.248;20.952;2023-07-08T14:28:03;2.50;;;2.30;;
17283;SDS011;8760;52.248;20.952;2023-07-08T14:30:31;4.70;;;2.70;;
17283;SDS011;8760;52.248;20.952;2023-07-08T14:32:58;4.90;;;2.40;;
17283;SDS011;8760;52.248;20.952;2023-07-08T14:35:27;2.88;;;2.40;;
17283;SDS011;8760;52.248;20.952;2023-07-08T14:37:56;3.50;;;2.65;;
17283;SDS011;8760;52.248;20.952;2023-07-08T14:40:25;5.03;;;2.70;;
17283;SDS011;8760;52.248;20.952;2023-07-08T14:42:56;3.20;;;2.90;;
17283;SDS011;8760;52.248;20.952;2023-07-08T14:45:25;3.95;;;2.78;;
17283;SDS011;8760;52.248;20.952;2023-07-08T14:47:54;3.00;;;2.38;;
17283;SDS011;8760;52.248;20.952;2023-07-08T14:50:21;3.00;;;2.78;;
17283;SDS011;8760;52.248;20.952;2023-07-08T14:52:52;3.97;;;2.75;;
17283;SDS011;8760;52.248;20.952;2023-07-08T14:55:19;4.60;;;3.22;;
17283;SDS011;8760;52.248;20.952;2023-07-08T14:57:46;2.70;;;2.50;;
17283;SDS011;8760;52.248;20.952;2023-07-08T15:00:15;3.33;;;2.83;;
17283;SDS011;8760;52.248;20.952;2023-07-08T15:02:44;4.38;;;2.30;;